sensor_id;sensor_type;location;lat;lon;timestamp;pressure;altitude;pressure_sealevel;temperature;humidity
3428;BME280;1727;42.624;23.406;2023-03-01T00:00:50;95369.13;;;6.57;100.00
3428;BME280;1727;42.624;23.406;2023-03-01T00:03:17;95366.44;;;6.58;100.00
3428;BME280;1727;42.624;23.406;2023-03-01T00:05:44;95363.47;;;6.50;100.00
3428;BME280;1727;42.624;23.406;2023-03-01T00:08:13;95369.44;;;6.52;100.00
3428;BME280;1727;42.624;23.406;2023-03-01T00:10:39;95360.38;;;6.58;100.00
3428;BME280;1727;42.624;23.406;2023-03-01T00:13:06;95366.25;;;6.61;100.00
3428;BME280;1727;42.624;23.406;2023-03-01T00:15:33;95367.38;;;6.43;100.00
3428;BME280;1727;42.624;23.406;2023-03-01T00:18:00;95362.19;;;6.43;100.00
3428;BME280;1727;42.624;23.406;2023-03-01T00:20:27;95360.22;;;6.46;100.00
3428;BME280;1727;42.624;23.406;2023-03-01T00:22:54;95349.13;;;6.43;100.00
3428;BME280;1727;42.624;23.406;2023-03-01T00:25:22;95347.91;;;6.34;100.00
3428;BME280;1727;42.624;23.406;2023-03-01T00:27:49;95351.38;;;6.20;100.00
3428;BME280;1727;42.624;23.406;2023-03-01T00:30:16;95341.31;;;6.14;100.00
3428;BME280;1727;42.624;23.406;2023-03-01T00:32:42;95338.63;;;6.16;100.00
3428;BME280;1727;42.624;23.406;2023-03-01T00:35:09;95335.47;;;6.11;100.00
3428;BME280;1727;42.624;23.406;2023-03-01T00:37:36;95331.28;;;6.08;100.00
3428;BME280;1727;42.624;23.406;2023-03-01T00:40:03;95325.88;;;6.11;100.00
3428;BME280;1727;42.624;23.406;2023-03-01T00:42:32;95325.69;;;6.14;100.00
3428;BME280;1727;42.624;23.406;2023-03-01T00:44:59;95335.47;;;6.11;100.00
3428;BME280;1727;42.624;23.406;2023-03-01T00:47:28;95327.25;;;6.03;100.00
3428;BME280;1727;42.624;23.406;2023-03-01T00:49:55;95334.44;;;6.13;100.00
3428;BME280;1727;42.624;23.406;2023-03-01T00:52:22;95334.63;;;6.10;100.00
3428;BME280;1727;42.624;23.406;2023-03-01T00:54:52;95326.13;;;5.93;100.00
3428;BME280;1727;42.624;23.406;2023-03-01T00:57:18;95319.91;;;5.95;100.00
3428;BME280;1727;42.624;23.406;2023-03-01T00:59:46;95315.72;;;5.93;100.00
3428;BME280;1727;42.624;23.406;2023-03-01T01:02:13;95319.91;;;5.95;100.00
3428;BME280;1727;42.624;23.406;2023-03-01T01:04:40;95323.44;;;5.94;100.00
3428;BME280;1727;42.624;23.406;2023-03-01T01:07:07;95325.75;;;5.99;100.00
3428;BME280;1727;42.624;23.406;2023-03-01T01:09:34;95327.81;;;5.94;100.00
3428;BME280;1727;42.624;23.406;2023-03-01T01:12:01;95327.25;;;6.03;100.00
3428;BME280;1727;42.624;23.406;2023-03-01T01:14:28;95331.28;;;6.08;100.00
3428;BME280;1727;42.624;23.406;2023-03-01T01:16:56;95324.22;;;6.10;100.00
3428;BME280;1727;42.624;23.406;2023-03-01T01:19:23;95327.28;;;6.17;100.00
3428;BME280;1727;42.624;23.406;2023-03-01T01:21:50;95323.63;;;6.19;100.00
3428;BME280;1727;42.624;23.406;2023-03-01T01:24:18;95332.94;;;6.24;100.00
3428;BME280;1727;42.624;23.406;2023-03-01T01:26:45;95325.22;;;6.22;100.00
3428;BME280;1727;42.624;23.406;2023-03-01T01:29:12;95331.28;;;6.08;100.00
3428;BME280;1727;42.624;23.406;2023-03-01T01:31:41;95318.53;;;6.18;100.00
3428;BME280;1727;42.624;23.406;2023-03-01T01:34:13;95328.72;;;6.07;100.00
3428;BME280;1727;42.624;23.406;2023-03-01T01:36:41;95333.50;;;6.14;100.00
3428;BME280;1727;42.624;23.406;2023-03-01T01:39:07;95341.22;;;6.16;100.00
3428;BME280;1727;42.624;23.406;2023-03-01T01:41:39;95336.31;;;6.11;100.00
3428;BME280;1727;42.624;23.406;2023-03-01T01:44:17;95331.63;;;6.31;100.00
3428;BME280;1727;42.624;23.406;2023-03-01T01:46:47;95323.81;;;6.31;100.00
3428;BME280;1727;42.624;23.406;2023-03-01T01:49:23;95325.88;;;6.40;100.00
3428;BME280;1727;42.624;23.406;2023-03-01T01:51:53;95329.50;;;6.37;100.00
3428;BME280;1727;42.624;23.406;2023-03-01T01:54:25;95326.97;;;6.36;100.00
3428;BME280;1727;42.624;23.406;2023-03-01T01:56:59;95326.50;;;6.29;100.00
3428;BME280;1727;42.624;23.406;2023-03-01T01:59:28;95329.31;;;6.26;100.00
3428;BME280;1727;42.624;23.406;2023-03-01T02:01:59;95332.19;;;6.36;100.00
3428;BME280;1727;42.624;23.406;2023-03-01T02:04:28;95322.69;;;6.35;100.00
3428;BME280;1727;42.624;23.406;2023-03-01T02:06:59;95320.47;;;6.43;100.00
3428;BME280;1727;42.624;23.406;2023-03-01T02:09:26;95320.56;;;6.27;100.00
3428;BME280;1727;42.624;23.406;2023-03-01T02:11:53;95313.88;;;6.23;100.00
3428;BME280;1727;42.624;23.406;2023-03-01T02:14:20;95307.44;;;6.29;100.00
3428;BME280;1727;42.624;23.406;2023-03-01T02:16:47;95311.06;;;6.40;100.00
3428;BME280;1727;42.624;23.406;2023-03-01T02:19:20;95309.09;;;6.30;100.00
3428;BME280;1727;42.624;23.406;2023-03-01T02:22:00;95318.44;;;6.19;100.00
3428;BME280;1727;42.624;23.406;2023-03-01T02:24:40;95312.19;;;6.22;100.00
3428;BME280;1727;42.624;23.406;2023-03-01T02:27:12;95312.75;;;6.13;100.00
3428;BME280;1727;42.624;23.406;2023-03-01T02:29:40;95317.50;;;6.20;100.00
3428;BME280;1727;42.624;23.406;2023-03-01T02:32:10;95315.81;;;6.34;100.00
3428;BME280;1727;42.624;23.406;2023-03-01T02:34:38;95317.31;;;6.24;100.00
3428;BME280;1727;42.624;23.406;2023-03-01T02:37:09;95324.75;;;6.30;100.00
3428;BME280;1727;42.624;23.406;2023-03-01T02:39:40;95317.41;;;6.22;100.00
3428;BME280;1727;42.624;23.406;2023-03-01T02:42:11;95323.63;;;6.19;100.00
3428;BME280;1727;42.624;23.406;2023-03-01T02:44:40;95326.44;;;6.16;100.00
3428;BME280;1727;42.624;23.406;2023-03-01T02:47:07;95327.38;;;6.15;100.00
3428;BME280;1727;42.624;23.406;2023-03-01T02:49:35;95319.94;;;6.09;100.00
3428;BME280;1727;42.624;23.406;2023-03-01T02:52:17;95323.44;;;5.94;100.00
3428;BME280;1727;42.624;23.406;2023-03-01T02:54:51;95321.09;;;6.04;100.00
3428;BME280;1727;42.624;23.406;2023-03-01T02:57:21;95320.28;;;6.17;100.00
3428;BME280;1727;42.624;23.406;2023-03-01T02:59:51;95323.47;;;6.08;100.00
3428;BME280;1727;42.624;23.406;2023-03-01T03:02:20;95323.47;;;6.08;100.00
3428;BME280;1727;42.624;23.406;2023-03-01T03:05:02;95322.69;;;6.06;100.00
3428;BME280;1727;42.624;23.406;2023-03-01T03:07:32;95312.84;;;6.11;100.00
3428;BME280;1727;42.624;23.406;2023-03-01T03:09:59;95314.13;;;6.04;100.00
3428;BME280;1727;42.624;23.406;2023-03-01T03:12:26;95320.56;;;5.99;100.00
3428;BME280;1727;42.624;23.406;2023-03-01T03:14:54;95314.97;;;5.90;100.00
3428;BME280;1727;42.624;23.406;2023-03-01T03:17:21;95311.53;;;5.90;100.00
3428;BME280;1727;42.624;23.406;2023-03-01T03:19:47;95321.75;;;5.93;100.00
3428;BME280;1727;42.624;23.406;2023-03-01T03:22:15;95322.94;;;5.87;100.00
3428;BME280;1727;42.624;23.406;2023-03-01T03:24:41;95324.72;;;6.01;100.00
3428;BME280;1727;42.624;23.406;2023-03-01T03:27:08;95323.72;;;6.04;100.00
3428;BME280;1727;42.624;23.406;2023-03-01T03:29:35;95325.13;;;6.09;100.00
3428;BME280;1727;42.624;23.406;2023-03-01T03:32:03;95330.41;;;5.94;100.00
3428;BME280;1727;42.624;23.406;2023-03-01T03:34:30;95325.44;;;5.89;100.00
3428;BME280;1727;42.624;23.406;2023-03-01T03:36:57;95326.59;;;5.99;100.00
3428;BME280;1727;42.624;23.406;2023-03-01T03:39:25;95322.16;;;6.15;100.00
3428;BME280;1727;42.624;23.406;2023-03-01T03:41:52;95331.56;;;6.18;100.00
3428;BME280;1727;42.624;23.406;2023-03-01T03:44:19;95332.19;;;6.21;100.00
3428;BME280;1727;42.624;23.406;2023-03-01T03:49:33;95336.38;;;6.24;100.00
3428;BME280;1727;42.624;23.406;2023-03-01T03:52:00;95329.50;;;6.23;100.00
3428;BME280;1727;42.624;23.406;2023-03-01T03:54:26;95333.69;;;6.26;100.00
3428;BME280;1727;42.624;23.406;2023-03-01T03:56:53;95332.13;;;6.37;100.00
3428;BME280;1727;42.624;23.406;2023-03-01T04:02:05;95323.81;;;6.31;100.00
3428;BME280;1727;42.624;23.406;2023-03-01T04:04:35;95326.31;;;6.32;100.00
3428;BME280;1727;42.624;23.406;2023-03-01T04:07:02;95332.75;;;6.12;100.00
3428;BME280;1727;42.624;23.406;2023-03-01T04:09:29;95332.56;;;6.30;100.00
3428;BME280;1727;42.624;23.406;2023-03-01T04:11:56;95325.78;;;6.27;100.00
3428;BME280;1727;42.624;23.406;2023-03-01T04:14:23;95333.50;;;6.29;100.00
3428;BME280;1727;42.624;23.406;2023-03-01T04:16:50;95334.81;;;6.21;100.00
3428;BME280;1727;42.624;23.406;2023-03-01T04:19:16;95337.88;;;6.14;100.00
3428;BME280;1727;42.624;23.406;2023-03-01T04:21:44;95331.25;;;6.22;100.00
3428;BME280;1727;42.624;23.406;2023-03-01T04:24:11;95329.22;;;6.13;100.00
3428;BME280;1727;42.624;23.406;2023-03-01T04:26:38;95332.94;;;6.09;100.00
3428;BME280;1727;42.624;23.406;2023-03-01T04:29:05;95335.66;;;6.08;100.00
3428;BME280;1727;42.624;23.406;2023-03-01T04:31:31;95336.41;;;6.10;100.00
3428;BME280;1727;42.624;23.406;2023-03-01T04:33:59;95337.41;;;6.07;100.00
3428;BME280;1727;42.624;23.406;2023-03-01T04:36:28;95334.63;;;6.10;100.00
3428;BME280;1727;42.624;23.406;2023-03-01T04:38:57;95334.44;;;6.28;100.00
3428;BME280;1727;42.624;23.406;2023-03-01T04:41:24;95323.91;;;6.29;100.00
3428;BME280;1727;42.624;23.406;2023-03-01T04:43:51;95329.41;;;6.39;100.00
3428;BME280;1727;42.624;23.406;2023-03-01T04:46:20;95340.78;;;6.38;100.00
3428;BME280;1727;42.624;23.406;2023-03-01T04:48:47;95333.84;;;6.51;100.00
3428;BME280;1727;42.624;23.406;2023-03-01T04:51:14;95325.84;;;6.68;100.00
3428;BME280;1727;42.624;23.406;2023-03-01T04:53:42;95322.59;;;6.50;100.00
3428;BME280;1727;42.624;23.406;2023-03-01T04:56:11;95327.63;;;6.53;100.00
3428;BME280;1727;42.624;23.406;2023-03-01T04:58:39;95331.16;;;6.52;100.00
3428;BME280;1727;42.624;23.406;2023-03-01T05:01:10;95331.53;;;6.46;100.00
3428;BME280;1727;42.624;23.406;2023-03-01T05:03:41;95333.66;;;6.54;100.00
3428;BME280;1727;42.624;23.406;2023-03-01T05:06:07;95334.84;;;6.63;100.00
3428;BME280;1727;42.624;23.406;2023-03-01T05:08:34;95336.88;;;6.86;100.00
3428;BME280;1727;42.624;23.406;2023-03-01T05:11:03;95334.25;;;7.00;100.00
3428;BME280;1727;42.624;23.406;2023-03-01T05:13:31;95331.78;;;7.11;100.00
3428;BME280;1727;42.624;23.406;2023-03-01T05:16:00;95342.84;;;7.15;100.00
3428;BME280;1727;42.624;23.406;2023-03-01T05:18:29;95336.97;;;7.26;100.00
3428;BME280;1727;42.624;23.406;2023-03-01T05:21:02;95332.16;;;7.32;100.00
3428;BME280;1727;42.624;23.406;2023-03-01T05:23:30;95334.47;;;7.37;100.00
3428;BME280;1727;42.624;23.406;2023-03-01T05:25:57;95336.88;;;7.40;100.00
3428;BME280;1727;42.624;23.406;2023-03-01T05:28:25;95337.38;;;7.32;100.00
3428;BME280;1727;42.624;23.406;2023-03-01T05:30:54;95334.97;;;7.02;100.00
3428;BME280;1727;42.624;23.406;2023-03-01T05:33:22;95336.84;;;7.00;100.00
3428;BME280;1727;42.624;23.406;2023-03-01T05:35:50;95331.50;;;6.75;100.00
3428;BME280;1727;42.624;23.406;2023-03-01T05:38:17;95335.00;;;6.88;100.00
3428;BME280;1727;42.624;23.406;2023-03-01T05:40:45;95340.72;;;6.80;100.00
3428;BME280;1727;42.624;23.406;2023-03-01T05:43:13;95345.97;;;6.66;100.00
3428;BME280;1727;42.624;23.406;2023-03-01T05:45:41;95335.03;;;6.74;100.00
3428;BME280;1727;42.624;23.406;2023-03-01T05:48:10;95333.56;;;6.56;100.00
3428;BME280;1727;42.624;23.406;2023-03-01T05:50:39;95342.41;;;6.53;100.00
3428;BME280;1727;42.624;23.406;2023-03-01T05:53:10;95342.09;;;8.81;100.00
3428;BME280;1727;42.624;23.406;2023-03-01T05:55:38;95345.63;;;10.68;100.00
3428;BME280;1727;42.624;23.406;2023-03-01T05:58:06;95366.22;;;12.04;97.48
3428;BME280;1727;42.624;23.406;2023-03-01T06:00:33;95371.16;;;12.90;85.24
3428;BME280;1727;42.624;23.406;2023-03-01T06:03:01;95371.69;;;13.64;86.11
3428;BME280;1727;42.624;23.406;2023-03-01T06:05:29;95370.13;;;13.52;84.41
3428;BME280;1727;42.624;23.406;2023-03-01T06:07:58;95378.88;;;12.52;75.61
3428;BME280;1727;42.624;23.406;2023-03-01T06:10:25;95382.16;;;11.48;79.52
3428;BME280;1727;42.624;23.406;2023-03-01T06:12:52;95385.13;;;10.78;83.07
3428;BME280;1727;42.624;23.406;2023-03-01T06:15:19;95371.38;;;9.94;86.35
3428;BME280;1727;42.624;23.406;2023-03-01T06:17:46;95387.09;;;9.23;87.63
3428;BME280;1727;42.624;23.406;2023-03-01T06:20:15;95383.63;;;8.86;89.33
3428;BME280;1727;42.624;23.406;2023-03-01T06:22:44;95388.88;;;8.22;93.43
3428;BME280;1727;42.624;23.406;2023-03-01T06:25:13;95375.31;;;7.38;98.39
3428;BME280;1727;42.624;23.406;2023-03-01T06:27:41;95367.66;;;7.08;100.00
3428;BME280;1727;42.624;23.406;2023-03-01T06:30:09;95372.72;;;6.97;100.00
3428;BME280;1727;42.624;23.406;2023-03-01T06:32:37;95370.97;;;6.97;100.00
3428;BME280;1727;42.624;23.406;2023-03-01T06:35:08;95363.69;;;8.59;100.00
3428;BME280;1727;42.624;23.406;2023-03-01T06:37:35;95373.63;;;10.34;100.00
3428;BME280;1727;42.624;23.406;2023-03-01T06:40:03;95390.63;;;11.08;95.16
3428;BME280;1727;42.624;23.406;2023-03-01T06:42:33;95401.22;;;10.96;94.59
3428;BME280;1727;42.624;23.406;2023-03-01T06:45:00;95399.09;;;10.90;92.09
3428;BME280;1727;42.624;23.406;2023-03-01T06:47:27;95391.06;;;10.46;94.22
3428;BME280;1727;42.624;23.406;2023-03-01T06:49:54;95392.00;;;10.10;93.67
3428;BME280;1727;42.624;23.406;2023-03-01T06:52:20;95392.72;;;10.01;91.86
3428;BME280;1727;42.624;23.406;2023-03-01T06:54:47;95383.91;;;8.94;92.30
3428;BME280;1727;42.624;23.406;2023-03-01T06:57:15;95382.00;;;8.34;96.86
3428;BME280;1727;42.624;23.406;2023-03-01T06:59:42;95383.88;;;7.80;100.00
3428;BME280;1727;42.624;23.406;2023-03-01T07:02:10;95384.25;;;7.61;100.00
3428;BME280;1727;42.624;23.406;2023-03-01T07:04:37;95376.03;;;7.13;100.00
3428;BME280;1727;42.624;23.406;2023-03-01T07:07:03;95377.47;;;6.90;100.00
3428;BME280;1727;42.624;23.406;2023-03-01T07:09:30;95383.34;;;6.94;100.00
3428;BME280;1727;42.624;23.406;2023-03-01T07:11:57;95379.88;;;6.93;100.00
3428;BME280;1727;42.624;23.406;2023-03-01T07:14:26;95369.94;;;6.86;100.00
3428;BME280;1727;42.624;23.406;2023-03-01T07:16:52;95373.47;;;6.84;100.00
3428;BME280;1727;42.624;23.406;2023-03-01T07:19:20;95369.50;;;6.79;100.00
3428;BME280;1727;42.624;23.406;2023-03-01T07:21:47;95373.59;;;6.55;100.00
3428;BME280;1727;42.624;23.406;2023-03-01T07:24:14;95368.66;;;6.64;100.00
3428;BME280;1727;42.624;23.406;2023-03-01T07:26:41;95367.91;;;6.62;100.00
3428;BME280;1727;42.624;23.406;2023-03-01T07:29:09;95371.00;;;6.69;100.00
3428;BME280;1727;42.624;23.406;2023-03-01T07:31:38;95368.22;;;6.72;100.00
3428;BME280;1727;42.624;23.406;2023-03-01T07:34:05;95362.22;;;6.84;100.00
3428;BME280;1727;42.624;23.406;2023-03-01T07:36:31;95364.72;;;7.00;100.00
3428;BME280;1727;42.624;23.406;2023-03-01T07:38:58;95366.34;;;7.15;100.00
3428;BME280;1727;42.624;23.406;2023-03-01T07:41:27;95370.97;;;6.97;100.00
3428;BME280;1727;42.624;23.406;2023-03-01T07:43:54;95372.59;;;7.12;100.00
3428;BME280;1727;42.624;23.406;2023-03-01T07:46:21;95367.03;;;7.04;100.00
3428;BME280;1727;42.624;23.406;2023-03-01T07:48:49;95370.72;;;7.14;100.00
3428;BME280;1727;42.624;23.406;2023-03-01T07:51:16;95360.34;;;7.27;100.00
3428;BME280;1727;42.624;23.406;2023-03-01T07:53:46;95354.09;;;7.30;100.00
3428;BME280;1727;42.624;23.406;2023-03-01T07:56:14;95350.84;;;7.26;100.00
3428;BME280;1727;42.624;23.406;2023-03-01T07:58:43;95349.81;;;7.29;100.00
3428;BME280;1727;42.624;23.406;2023-03-01T08:01:12;95350.88;;;7.12;100.00
3428;BME280;1727;42.624;23.406;2023-03-01T08:03:39;95353.28;;;7.15;100.00
3428;BME280;1727;42.624;23.406;2023-03-01T08:06:08;95346.72;;;7.22;100.00
3428;BME280;1727;42.624;23.406;2023-03-01T08:08:35;95347.03;;;7.44;100.00
3428;BME280;1727;42.624;23.406;2023-03-01T08:11:03;95354.28;;;7.54;100.00
3428;BME280;1727;42.624;23.406;2023-03-01T08:13:30;95350.38;;;7.46;100.00
3428;BME280;1727;42.624;23.406;2023-03-01T08:16:01;95351.19;;;7.34;100.00
3428;BME280;1727;42.624;23.406;2023-03-01T08:18:28;95349.84;;;7.41;99.97
3428;BME280;1727;42.624;23.406;2023-03-01T08:20:55;95346.56;;;7.25;100.00
3428;BME280;1727;42.624;23.406;2023-03-01T08:23:23;95341.88;;;7.30;100.00
3428;BME280;1727;42.624;23.406;2023-03-01T08:25:50;95346.91;;;7.33;100.00
3428;BME280;1727;42.624;23.406;2023-03-01T08:28:18;95347.03;;;7.44;100.00
3428;BME280;1727;42.624;23.406;2023-03-01T08:30:45;95352.13;;;7.33;98.96
3428;BME280;1727;42.624;23.406;2023-03-01T08:33:11;95345.59;;;7.53;99.87
3428;BME280;1727;42.624;23.406;2023-03-01T08:35:38;95350.31;;;7.61;99.20
3428;BME280;1727;42.624;23.406;2023-03-01T08:38:05;95345.31;;;7.31;99.48
3428;BME280;1727;42.624;23.406;2023-03-01T08:40:33;95346.44;;;7.54;99.72
3428;BME280;1727;42.624;23.406;2023-03-01T08:43:00;95348.13;;;7.67;99.35
3428;BME280;1727;42.624;23.406;2023-03-01T08:45:26;95341.06;;;7.82;98.67
3428;BME280;1727;42.624;23.406;2023-03-01T08:47:53;95355.66;;;7.72;97.28
3428;BME280;1727;42.624;23.406;2023-03-01T08:50:20;95352.50;;;7.54;98.40
3428;BME280;1727;42.624;23.406;2023-03-01T08:52:48;95347.91;;;7.58;97.93
3428;BME280;1727;42.624;23.406;2023-03-01T08:55:15;95354.19;;;7.68;98.23
3428;BME280;1727;42.624;23.406;2023-03-01T08:57:44;95357.13;;;7.76;97.72
3428;BME280;1727;42.624;23.406;2023-03-01T09:00:11;95358.38;;;7.70;97.77
3428;BME280;1727;42.624;23.406;2023-03-01T09:02:40;95348.66;;;7.72;97.79
3428;BME280;1727;42.624;23.406;2023-03-01T09:05:07;95349.06;;;7.54;97.73
3428;BME280;1727;42.624;23.406;2023-03-01T09:07:34;95348.13;;;7.55;98.62
3428;BME280;1727;42.624;23.406;2023-03-01T09:10:01;95350.44;;;7.72;98.29
3428;BME280;1727;42.624;23.406;2023-03-01T09:12:28;95348.50;;;7.49;98.31
3428;BME280;1727;42.624;23.406;2023-03-01T09:14:56;95353.44;;;7.53;98.87
3428;BME280;1727;42.624;23.406;2023-03-01T09:17:23;95353.72;;;7.49;98.99
3428;BME280;1727;42.624;23.406;2023-03-01T09:19:50;95352.09;;;7.73;98.64
3428;BME280;1727;42.624;23.406;2023-03-01T09:22:16;95348.06;;;7.82;97.22
3428;BME280;1727;42.624;23.406;2023-03-01T09:24:43;95344.28;;;7.73;96.82
3428;BME280;1727;42.624;23.406;2023-03-01T09:27:10;95343.13;;;7.64;97.45
3428;BME280;1727;42.624;23.406;2023-03-01T09:29:38;95345.97;;;7.34;99.22
3428;BME280;1727;42.624;23.406;2023-03-01T09:32:06;95340.66;;;7.22;99.30
3428;BME280;1727;42.624;23.406;2023-03-01T09:34:33;95336.78;;;7.41;99.52
3428;BME280;1727;42.624;23.406;2023-03-01T09:37:20;95341.00;;;7.57;99.20
3428;BME280;1727;42.624;23.406;2023-03-01T09:39:47;95335.72;;;7.31;100.00
3428;BME280;1727;42.624;23.406;2023-03-01T09:42:14;95333.72;;;7.62;100.00
3428;BME280;1727;42.624;23.406;2023-03-01T09:44:45;95332.47;;;7.80;99.01
3428;BME280;1727;42.624;23.406;2023-03-01T09:47:18;95331.09;;;7.62;98.79
3428;BME280;1727;42.624;23.406;2023-03-01T09:49:54;95326.91;;;7.59;98.84
3428;BME280;1727;42.624;23.406;2023-03-01T09:52:29;95328.25;;;7.52;98.71
3428;BME280;1727;42.624;23.406;2023-03-01T09:55:00;95329.25;;;7.37;100.00
3428;BME280;1727;42.624;23.406;2023-03-01T09:57:33;95315.09;;;7.54;99.90
3428;BME280;1727;42.624;23.406;2023-03-01T10:00:16;95326.38;;;7.54;99.15
3428;BME280;1727;42.624;23.406;2023-03-01T10:02:51;95323.16;;;7.63;99.04
3428;BME280;1727;42.624;23.406;2023-03-01T10:05:32;95319.56;;;7.52;99.15
3428;BME280;1727;42.624;23.406;2023-03-01T10:08:19;95320.31;;;7.54;99.51
3428;BME280;1727;42.624;23.406;2023-03-01T10:10:52;95316.16;;;7.64;99.87
3428;BME280;1727;42.624;23.406;2023-03-01T10:13:23;95312.72;;;7.76;99.23
3428;BME280;1727;42.624;23.406;2023-03-01T10:15:53;95316.78;;;7.80;98.64
3428;BME280;1727;42.624;23.406;2023-03-01T10:18:26;95313.75;;;7.73;98.50
3428;BME280;1727;42.624;23.406;2023-03-01T10:20:56;95308.31;;;7.76;98.43
3428;BME280;1727;42.624;23.406;2023-03-01T10:23:24;95315.69;;;7.84;97.71
3428;BME280;1727;42.624;23.406;2023-03-01T10:26:01;95295.38;;;8.00;99.02
3428;BME280;1727;42.624;23.406;2023-03-01T10:28:44;95300.63;;;8.00;97.40
3428;BME280;1727;42.624;23.406;2023-03-01T10:31:15;95294.47;;;7.89;97.43
3428;BME280;1727;42.624;23.406;2023-03-01T10:33:45;95287.75;;;7.72;98.64
3428;BME280;1727;42.624;23.406;2023-03-01T10:36:13;95292.16;;;7.84;99.18
3428;BME280;1727;42.624;23.406;2023-03-01T10:38:51;95289.75;;;7.81;98.55
3428;BME280;1727;42.624;23.406;2023-03-01T10:41:19;95285.88;;;7.74;99.13
3428;BME280;1727;42.624;23.406;2023-03-01T10:43:50;95277.91;;;7.75;98.39
3428;BME280;1727;42.624;23.406;2023-03-01T10:46:25;95276.03;;;7.65;99.54
3428;BME280;1727;42.624;23.406;2023-03-01T10:49:10;95273.00;;;7.71;99.18
3428;BME280;1727;42.624;23.406;2023-03-01T10:51:39;95269.66;;;7.69;99.16
3428;BME280;1727;42.624;23.406;2023-03-01T10:54:16;95274.38;;;7.64;99.01
3428;BME280;1727;42.624;23.406;2023-03-01T10:56:48;95269.03;;;7.65;99.56
3428;BME280;1727;42.624;23.406;2023-03-01T10:59:22;95264.97;;;7.61;99.84
3428;BME280;1727;42.624;23.406;2023-03-01T11:02:14;95268.00;;;7.55;100.00
3428;BME280;1727;42.624;23.406;2023-03-01T11:04:57;95267.06;;;7.69;100.00
3428;BME280;1727;42.624;23.406;2023-03-01T11:07:24;95267.56;;;7.74;99.33
3428;BME280;1727;42.624;23.406;2023-03-01T11:09:51;95270.63;;;7.68;99.24
3428;BME280;1727;42.624;23.406;2023-03-01T11:12:19;95276.34;;;7.60;100.00
3428;BME280;1727;42.624;23.406;2023-03-01T11:14:48;95268.84;;;7.68;100.00
3428;BME280;1727;42.624;23.406;2023-03-01T11:17:18;95272.59;;;7.77;99.63
3428;BME280;1727;42.624;23.406;2023-03-01T11:20:02;95261.63;;;7.59;99.68
3428;BME280;1727;42.624;23.406;2023-03-01T11:22:31;95256.81;;;7.66;99.71
3428;BME280;1727;42.624;23.406;2023-03-01T11:24:59;95262.66;;;7.69;99.91
3428;BME280;1727;42.624;23.406;2023-03-01T11:27:29;95261.66;;;7.85;99.65
3428;BME280;1727;42.624;23.406;2023-03-01T11:30:00;95272.09;;;7.97;98.92
3428;BME280;1727;42.624;23.406;2023-03-01T11:32:35;95271.25;;;8.10;98.39
3428;BME280;1727;42.624;23.406;2023-03-01T11:35:12;95268.50;;;8.24;97.83
3428;BME280;1727;42.624;23.406;2023-03-01T11:37:44;95264.41;;;8.32;96.85
3428;BME280;1727;42.624;23.406;2023-03-01T11:40:23;95263.50;;;8.33;96.95
3428;BME280;1727;42.624;23.406;2023-03-01T11:42:59;95258.25;;;8.46;96.55
3428;BME280;1727;42.624;23.406;2023-03-01T11:45:34;95252.59;;;8.52;96.42
3428;BME280;1727;42.624;23.406;2023-03-01T11:48:21;95255.81;;;8.68;95.23
3428;BME280;1727;42.624;23.406;2023-03-01T11:50:57;95244.78;;;8.76;94.57
3428;BME280;1727;42.624;23.406;2023-03-01T11:53:39;95238.75;;;8.87;94.60
3428;BME280;1727;42.624;23.406;2023-03-01T11:56:21;95237.34;;;8.94;93.90
3428;BME280;1727;42.624;23.406;2023-03-01T11:59:05;95230.22;;;8.96;93.65
3428;BME280;1727;42.624;23.406;2023-03-01T12:01:51;95234.59;;;9.08;93.52
3428;BME280;1727;42.624;23.406;2023-03-01T12:04:58;95239.31;;;9.03;93.48
3428;BME280;1727;42.624;23.406;2023-03-01T12:07:37;95232.91;;;9.07;92.63
3428;BME280;1727;42.624;23.406;2023-03-01T12:10:20;95229.69;;;9.04;92.48
3428;BME280;1727;42.624;23.406;2023-03-01T12:13:01;95230.75;;;9.01;92.52
3428;BME280;1727;42.624;23.406;2023-03-01T12:15:39;95235.34;;;9.21;92.00
3428;BME280;1727;42.624;23.406;2023-03-01T12:18:20;95223.78;;;8.89;92.41
3428;BME280;1727;42.624;23.406;2023-03-01T12:20:58;95229.41;;;8.95;91.68
3428;BME280;1727;42.624;23.406;2023-03-01T12:23:53;95223.66;;;8.90;92.07
3428;BME280;1727;42.624;23.406;2023-03-01T12:26:27;95214.94;;;8.79;91.56
3428;BME280;1727;42.624;23.406;2023-03-01T12:29:06;95216.81;;;8.77;91.98
3428;BME280;1727;42.624;23.406;2023-03-01T12:31:57;95211.06;;;8.95;91.49
3428;BME280;1727;42.624;23.406;2023-03-01T12:34:42;95217.09;;;8.85;91.29
3428;BME280;1727;42.624;23.406;2023-03-01T12:37:25;95211.81;;;8.97;91.49
3428;BME280;1727;42.624;23.406;2023-03-01T12:40:33;95212.78;;;8.96;91.86
3428;BME280;1727;42.624;23.406;2023-03-01T12:43:17;95216.94;;;8.99;90.98
3428;BME280;1727;42.624;23.406;2023-03-01T12:45:54;95204.38;;;9.15;90.05
3428;BME280;1727;42.624;23.406;2023-03-01T12:48:38;95207.25;;;9.23;91.14
3428;BME280;1727;42.624;23.406;2023-03-01T12:51:09;95210.88;;;9.34;91.00
3428;BME280;1727;42.624;23.406;2023-03-01T12:53:40;95202.91;;;9.46;89.56
3428;BME280;1727;42.624;23.406;2023-03-01T12:56:11;95206.25;;;9.37;89.73
3428;BME280;1727;42.624;23.406;2023-03-01T12:58:42;95202.78;;;9.37;90.56
3428;BME280;1727;42.624;23.406;2023-03-01T13:01:22;95208.50;;;9.30;90.26
3428;BME280;1727;42.624;23.406;2023-03-01T13:07:14;95204.75;;;9.22;90.14
3428;BME280;1727;42.624;23.406;2023-03-01T13:09:49;95198.25;;;9.27;91.22
3428;BME280;1727;42.624;23.406;2023-03-01T13:12:51;95211.34;;;9.27;92.04
3428;BME280;1727;42.624;23.406;2023-03-01T13:15:34;95213.97;;;9.27;90.87
3428;BME280;1727;42.624;23.406;2023-03-01T13:18:03;95216.75;;;9.13;91.23
3428;BME280;1727;42.624;23.406;2023-03-01T13:20:33;95224.91;;;8.74;93.24
3428;BME280;1727;42.624;23.406;2023-03-01T13:23:04;95214.34;;;8.26;95.44
3428;BME280;1727;42.624;23.406;2023-03-01T13:25:32;95214.34;;;8.26;96.27
3428;BME280;1727;42.624;23.406;2023-03-01T13:28:38;95219.38;;;8.16;97.50
3428;BME280;1727;42.624;23.406;2023-03-01T13:31:08;95208.94;;;8.16;98.11
3428;BME280;1727;42.624;23.406;2023-03-01T13:33:43;95208.66;;;8.32;98.03
3428;BME280;1727;42.624;23.406;2023-03-01T13:36:11;95208.16;;;8.27;98.25
3428;BME280;1727;42.624;23.406;2023-03-01T13:39:01;95206.06;;;8.32;97.38
3428;BME280;1727;42.624;23.406;2023-03-01T13:41:49;95200.94;;;8.43;97.99